createdAt,value
2018-12-07T00:01:09.932Z,100391.44
2018-12-07T00:03:38.522Z,100395.08
2018-12-07T00:06:06.972Z,100387.48
2018-12-07T00:08:37.161Z,100388.47
2018-12-07T00:11:06.089Z,100385.53
2018-12-07T00:13:34.629Z,100376.58
2018-12-07T00:16:03.130Z,100367.72
2018-12-07T00:18:31.778Z,100374.12
2018-12-07T00:21:00.325Z,100368.97
2018-12-07T00:23:28.808Z,100367.81
2018-12-07T00:25:57.324Z,100368.77
2018-12-07T00:28:25.875Z,100360.62
2018-12-07T00:30:54.627Z,100362.87
2018-12-07T00:33:23.109Z,100361.25
2018-12-07T00:35:51.780Z,100351.78
2018-12-07T00:38:20.307Z,100352.37
2018-12-07T00:40:49.327Z,100342.94
2018-12-07T00:43:17.890Z,100343.94
2018-12-07T00:45:46.431Z,100348.81
2018-12-07T00:48:15.565Z,100343.02
2018-12-07T00:50:44.118Z,100339.05
2018-12-07T00:53:12.821Z,100342.12
2018-12-07T00:55:41.606Z,100343.73
2018-12-07T00:58:10.786Z,100334.39
2018-12-07T01:00:39.996Z,100331.13
2018-12-07T01:03:08.500Z,100338.36
2018-12-07T01:05:37.227Z,100336.13
2018-12-07T01:08:05.859Z,100330.09
2018-12-07T01:10:34.350Z,100327.86
2018-12-07T01:13:02.997Z,100321.05
2018-12-07T01:15:31.536Z,100317.58
2018-12-07T01:18:00.053Z,100323.61
2018-12-07T01:20:28.572Z,100312.28
2018-12-07T01:22:57.295Z,100311.79
2018-12-07T01:25:25.899Z,100308.85
2018-12-07T01:27:54.392Z,100304.36
2018-12-07T01:30:22.860Z,100291.55
2018-12-07T01:32:51.404Z,100294.60
2018-12-07T01:35:20.000Z,100300.72
2018-12-07T01:37:48.530Z,100294.31
2018-12-07T01:40:19.076Z,100289.81
2018-12-07T01:42:48.062Z,100286.88
2018-12-07T01:45:16.542Z,100288.62
2018-12-07T01:47:47.477Z,100291.25
2018-12-07T01:50:16.580Z,100289.02
2018-12-07T01:52:45.129Z,100288.70
2018-12-07T01:55:13.647Z,100286.25
2018-12-07T01:57:42.532Z,100294.72
2018-12-07T02:00:11.304Z,100283.11
2018-12-07T02:02:39.808Z,100284.94
2018-12-07T02:05:08.858Z,100285.47
2018-12-07T02:07:37.512Z,100278.03
2018-12-07T02:10:06.852Z,100278.73
2018-12-07T02:12:35.366Z,100274.48
2018-12-07T02:15:04.036Z,100276.30
2018-12-07T02:17:32.624Z,100277.41
2018-12-07T02:20:01.132Z,100274.36
2018-12-07T02:22:29.700Z,100269.07
2018-12-07T02:24:58.194Z,100264.11
2018-12-07T02:27:26.740Z,100258.81
2018-12-07T02:29:55.199Z,100256.05
2018-12-07T02:32:23.675Z,100245.27
2018-12-07T02:34:52.243Z,100247.92
2018-12-07T02:37:20.912Z,100249.23
2018-12-07T02:39:49.431Z,100241.02
2018-12-07T02:42:20.107Z,100237.45
2018-12-07T02:44:48.652Z,100232.67
2018-12-07T02:47:17.141Z,100226.56
2018-12-07T02:49:45.673Z,100224.66
2018-12-07T02:52:14.156Z,100225.03
2018-12-07T02:54:43.024Z,100211.02
2018-12-07T02:57:11.628Z,100216.31
2018-12-07T02:59:40.107Z,100214.08
2018-12-07T03:02:08.814Z,100197.69
2018-12-07T03:04:37.271Z,100193.84
2018-12-07T03:07:06.007Z,100190.78
2018-12-07T03:09:34.520Z,100192.92
2018-12-07T03:12:03.087Z,100190.87
2018-12-07T03:14:31.717Z,100186.49
2018-12-07T03:17:00.195Z,100185.38
2018-12-07T03:19:28.661Z,100181.33
2018-12-07T03:21:57.217Z,100183.96
2018-12-07T03:24:25.713Z,100173.80
2018-12-07T03:26:54.267Z,100172.69
2018-12-07T03:29:22.755Z,100176.03
2018-12-07T03:31:51.487Z,100170.22
2018-12-07T03:34:19.995Z,100163.44
2018-12-07T03:36:48.464Z,100159.64
2018-12-07T03:39:16.953Z,100153.45
2018-12-07T03:41:45.424Z,100151.53
2018-12-07T03:44:14.048Z,100146.95
2018-12-07T03:46:42.563Z,100141.67
2018-12-07T03:49:11.268Z,100141.14
2018-12-07T03:51:39.933Z,100134.14
2018-12-07T03:54:08.475Z,100136.67
2018-12-07T03:56:36.965Z,100139.03
2018-12-07T03:59:05.539Z,100141.95
2018-12-07T04:01:34.076Z,100133.33
2018-12-07T04:04:02.564Z,100134.03
2018-12-07T04:06:31.100Z,100142.46
2018-12-07T04:08:59.567Z,100135.06
2018-12-07T04:11:28.139Z,100139.52
2018-12-07T04:13:56.614Z,100139.31
2018-12-07T04:16:25.166Z,100137.91
2018-12-07T04:18:54.665Z,100131.80
2018-12-07T04:21:23.339Z,100129.15
2018-12-07T04:23:51.927Z,100122.25
2018-12-07T04:26:20.393Z,100121.02
2018-12-07T04:28:48.876Z,100119.81
2018-12-07T04:31:17.486Z,100111.47
2018-12-07T04:33:46.058Z,100116.43
2018-12-07T04:36:14.723Z,100110.56
2018-12-07T04:38:43.258Z,100100.56
2018-12-07T04:41:11.760Z,100090.41
2018-12-07T04:43:40.294Z,100089.09
2018-12-07T04:46:08.757Z,100085.83
2018-12-07T04:48:37.296Z,100089.41
2018-12-07T04:51:05.826Z,100088.48
2018-12-07T04:53:35.281Z,100084.72
2018-12-07T04:56:03.975Z,100086.25
2018-12-07T04:58:32.507Z,100077.61
2018-12-07T05:01:01.121Z,100070.50
2018-12-07T05:03:29.800Z,100062.16
2018-12-07T05:05:58.329Z,100057.17
2018-12-07T05:08:26.841Z,100059.31
2018-12-07T05:10:55.531Z,100054.53
2018-12-07T05:13:24.089Z,100052.20
2018-12-07T05:15:52.552Z,100042.95
2018-12-07T05:18:21.904Z,100036.23
2018-12-07T05:20:51.256Z,100038.57
2018-12-07T05:23:19.774Z,100032.88
2018-12-07T05:25:48.241Z,100030.03
2018-12-07T05:28:16.807Z,100025.03
2018-12-07T05:30:45.409Z,100033.36
2018-12-07T05:33:14.040Z,100024.24
2018-12-07T05:35:42.699Z,100028.59
2018-12-07T05:38:11.524Z,100023.61
2018-12-07T05:40:40.020Z,100019.45
2018-12-07T05:43:08.656Z,100010.30
2018-12-07T05:45:37.462Z,99998.33
2018-12-07T05:48:05.956Z,100006.47
2018-12-07T05:50:34.461Z,99993.25
2018-12-07T05:53:02.947Z,99997.80
2018-12-07T05:55:31.433Z,99989.69
2018-12-07T05:57:59.925Z,99989.36
2018-12-07T06:00:28.486Z,99984.58
2018-12-07T06:02:56.947Z,99975.54
2018-12-07T06:07:21.399Z,99974.75
2018-12-07T06:09:49.911Z,99968.14
2018-12-07T06:12:18.430Z,99967.21
2018-12-07T06:14:46.964Z,99964.39
2018-12-07T06:17:16.097Z,99959.81
2018-12-07T06:19:44.585Z,99961.21
2018-12-07T06:22:13.152Z,99951.67
2018-12-07T06:24:41.673Z,99960.92
2018-12-07T06:27:10.169Z,99953.28
2018-12-07T06:29:38.726Z,99949.32
2018-12-07T06:32:07.261Z,99952.38
2018-12-07T06:34:35.756Z,99950.03
2018-12-07T06:37:04.300Z,99932.35
2018-12-07T06:39:32.809Z,99935.50
2018-12-07T06:42:01.436Z,99931.42
2018-12-07T06:44:30.062Z,99934.68
2018-12-07T06:46:58.728Z,99920.45
2018-12-07T06:49:27.197Z,99923.92
2018-12-07T06:51:55.703Z,99916.49
2018-12-07T06:54:24.188Z,99918.13
2018-12-07T06:56:52.693Z,99913.64
2018-12-07T06:59:21.208Z,99918.13
2018-12-07T07:01:50.500Z,99913.34
2018-12-07T07:04:19.111Z,99917.81
2018-12-07T07:06:47.591Z,99906.81
2018-12-07T07:09:16.241Z,99899.71
2018-12-07T07:11:44.773Z,99900.42
2018-12-07T07:14:13.328Z,99901.03
2018-12-07T07:16:41.933Z,99884.89
2018-12-07T07:19:10.436Z,99889.31
2018-12-07T07:21:38.979Z,99881.81
2018-12-07T07:24:07.561Z,99868.81
2018-12-07T07:26:36.047Z,99868.20
2018-12-07T07:29:04.689Z,99871.95
2018-12-07T07:31:33.247Z,99867.48
2018-12-07T07:34:01.767Z,99858.45
2018-12-07T07:36:30.283Z,99862.81
2018-12-07T07:38:58.805Z,99854.84
2018-12-07T07:41:27.307Z,99851.49
2018-12-07T07:43:55.801Z,99842.84
2018-12-07T07:46:24.301Z,99838.20
2018-12-07T07:48:52.807Z,99838.20
2018-12-07T07:51:21.287Z,99832.09
2018-12-07T07:53:49.771Z,99828.95
2018-12-07T07:56:18.268Z,99833.52
2018-12-07T07:58:46.812Z,99827.31
2018-12-07T08:01:15.443Z,99819.38
2018-12-07T08:03:43.970Z,99816.23
2018-12-07T08:06:12.448Z,99808.63
2018-12-07T08:08:41.064Z,99805.66
2018-12-07T08:11:09.668Z,99809.56
2018-12-07T08:13:38.128Z,99800.38
2018-12-07T08:16:06.645Z,99786.56
2018-12-07T08:18:35.127Z,99790.63
2018-12-07T08:21:03.611Z,99781.38
2018-12-07T08:23:32.173Z,99783.69
2018-12-07T08:26:00.730Z,99775.05
2018-12-07T08:28:29.251Z,99776.48
2018-12-07T08:30:57.815Z,99771.52
2018-12-07T08:33:26.981Z,99769.48
2018-12-07T08:35:55.510Z,99777.16
2018-12-07T08:38:24.035Z,99765.69
2018-12-07T08:40:52.653Z,99763.55
2018-12-07T08:43:21.938Z,99764.80
2018-12-07T08:45:50.474Z,99754.95
2018-12-07T08:48:19.045Z,99762.76
2018-12-07T08:50:47.528Z,99753.41
2018-12-07T08:53:16.084Z,99740.91
2018-12-07T08:55:44.679Z,99745.14
2018-12-07T08:58:13.192Z,99737.33
2018-12-07T09:00:41.660Z,99732.27
2018-12-07T09:03:10.235Z,99735.73
2018-12-07T09:05:38.927Z,99726.37
2018-12-07T09:08:14.923Z,99722.36
2018-12-07T09:10:37.973Z,99721.79
2018-12-07T09:13:06.575Z,99710.02
2018-12-07T09:15:35.069Z,99710.02
2018-12-07T09:18:03.597Z,99706.33
2018-12-07T09:20:32.080Z,99700.92
2018-12-07T09:23:00.724Z,99697.25
2018-12-07T09:25:29.353Z,99695.64
2018-12-07T09:27:57.904Z,99693.94
2018-12-07T09:30:26.414Z,99678.96
2018-12-07T09:32:54.936Z,99672.95
2018-12-07T09:35:23.422Z,99676.64
2018-12-07T09:37:51.903Z,99672.89
2018-12-07T09:40:20.367Z,99660.99
2018-12-07T09:42:48.946Z,99655.99
2018-12-07T09:45:17.437Z,99642.78
2018-12-07T09:48:16.677Z,99642.69
2018-12-07T09:50:45.172Z,99634.56
2018-12-07T09:53:13.717Z,99635.22
2018-12-07T09:55:42.249Z,99630.31
2018-12-07T09:58:10.944Z,99624.30
2018-12-07T10:00:39.476Z,99617.60
2018-12-07T10:03:08.015Z,99618.77
2018-12-07T10:05:36.585Z,99611.50
2018-12-07T10:08:05.167Z,99608.22
2018-12-07T10:10:33.672Z,99607.63
2018-12-07T10:13:07.951Z,99612.09
2018-12-07T10:15:32.719Z,99592.62
2018-12-07T10:18:01.221Z,99587.14
2018-12-07T10:20:29.713Z,99585.06
2018-12-07T10:22:58.289Z,99587.42
2018-12-07T10:25:26.771Z,99585.28
2018-12-07T10:27:55.375Z,99585.59
2018-12-07T10:30:23.903Z,99574.42
2018-12-07T10:32:53.017Z,99569.87
2018-12-07T10:35:21.630Z,99561.50
2018-12-07T10:37:50.239Z,99566.66
2018-12-07T10:40:18.751Z,99572.60
2018-12-07T10:42:47.363Z,99561.27
2018-12-07T10:45:15.901Z,99550.70
2018-12-07T10:47:50.174Z,99563.86
2018-12-07T10:50:15.289Z,99543.21
2018-12-07T10:52:43.791Z,99528.08
2018-12-07T10:55:12.494Z,99523.70
2018-12-07T10:57:41.381Z,99509.31
2018-12-07T11:00:22.708Z,99506.52
2018-12-07T11:02:53.281Z,99492.27
2018-12-07T11:05:27.050Z,99490.21
2018-12-07T11:10:07.148Z,99485.15
2018-12-07T11:12:40.970Z,99490.72
2018-12-07T11:15:14.568Z,99475.08
2018-12-07T11:17:48.319Z,99488.58
2018-12-07T11:20:22.000Z,99472.67
2018-12-07T11:22:55.761Z,99467.94
2018-12-07T11:25:30.122Z,99463.69
2018-12-07T11:28:03.842Z,99453.94
2018-12-07T11:30:37.423Z,99450.11
2018-12-07T11:33:11.185Z,99445.55
2018-12-07T11:35:41.658Z,99442.04
2018-12-07T11:38:10.238Z,99439.84
2018-12-07T11:40:38.717Z,99444.55
2018-12-07T11:43:07.384Z,99433.66
2018-12-07T11:45:35.888Z,99417.52
2018-12-07T11:48:04.397Z,99414.28
2018-12-07T11:50:32.918Z,99395.50
2018-12-07T11:53:01.574Z,99388.76
2018-12-07T11:55:30.073Z,99384.84
2018-12-07T11:57:58.655Z,99385.35
2018-12-07T12:00:27.210Z,99374.22
2018-12-07T12:02:55.884Z,99367.61
2018-12-07T12:05:24.396Z,99357.45
2018-12-07T12:07:53.012Z,99346.47
2018-12-07T12:10:21.479Z,99337.17
2018-12-07T12:12:50.097Z,99338.50
2018-12-07T12:15:18.705Z,99322.59
2018-12-07T12:17:47.254Z,99311.48
2018-12-07T12:20:15.826Z,99302.36
2018-12-07T12:22:44.400Z,99301.49
2018-12-07T12:25:12.952Z,99292.55
2018-12-07T12:27:41.460Z,99297.38
2018-12-07T12:30:09.941Z,99281.08
2018-12-07T12:32:38.609Z,99280.57
2018-12-07T12:35:07.608Z,99271.76
2018-12-07T12:37:36.177Z,99262.91
2018-12-07T12:40:05.008Z,99261.23
2018-12-07T12:42:33.519Z,99253.61
2018-12-07T12:45:02.049Z,99235.66
2018-12-07T12:47:30.582Z,99237.28
2018-12-07T12:49:59.060Z,99245.45
2018-12-07T12:52:27.571Z,99231.34
2018-12-07T12:54:56.172Z,99227.95
2018-12-07T12:57:24.642Z,99215.78
2018-12-07T12:59:53.243Z,99203.15
2018-12-07T13:02:21.779Z,99193.66
2018-12-07T13:04:50.304Z,99183.02
2018-12-07T13:07:18.787Z,99173.88
2018-12-07T13:09:47.283Z,99170.45
2018-12-07T13:12:15.812Z,99160.66
2018-12-07T13:14:44.353Z,99151.59
2018-12-07T13:17:12.848Z,99145.14
2018-12-07T13:19:41.383Z,99142.27
2018-12-07T13:22:09.874Z,99126.88
2018-12-07T13:24:38.352Z,99129.28
2018-12-07T13:27:06.885Z,99125.59
2018-12-07T13:29:35.372Z,99118.98
2018-12-07T13:32:03.968Z,99111.76
2018-12-07T13:34:32.534Z,99097.22
2018-12-07T13:37:01.124Z,99090.61
2018-12-07T13:39:29.625Z,99085.44
2018-12-07T13:41:58.322Z,99074.82
2018-12-07T13:44:27.093Z,99068.65
2018-12-07T13:46:55.698Z,99064.34
2018-12-07T13:49:24.309Z,99057.92
2018-12-07T13:51:52.942Z,99052.91
2018-12-07T13:54:21.777Z,99051.32
2018-12-07T13:56:50.697Z,99050.91
2018-12-07T13:59:19.260Z,99057.81
2018-12-07T14:01:47.843Z,99046.55
2018-12-07T14:04:16.367Z,99040.22
2018-12-07T14:06:45.209Z,99027.82
2018-12-07T14:09:14.053Z,99040.45
2018-12-07T14:11:42.710Z,99013.52
2018-12-07T14:14:11.286Z,99018.61
2018-12-07T14:16:40.008Z,99012.00
2018-12-07T14:19:08.581Z,99008.41
2018-12-07T14:21:37.218Z,98998.92
2018-12-07T14:24:05.905Z,98994.10
2018-12-07T14:26:34.662Z,98962.98
2018-12-07T14:29:03.395Z,98979.30
2018-12-07T14:31:32.021Z,98973.20
2018-12-07T14:34:00.965Z,98962.74
2018-12-07T14:36:29.641Z,98960.33
2018-12-07T14:38:58.266Z,98953.77
2018-12-07T14:41:27.051Z,98937.64
2018-12-07T14:43:55.730Z,98941.77
2018-12-07T14:46:24.315Z,98944.82
2018-12-07T14:48:52.808Z,98931.14
2018-12-07T14:51:21.670Z,98934.28
2018-12-07T14:53:50.433Z,98925.85
2018-12-07T14:56:20.891Z,98923.38
2018-12-07T14:58:49.543Z,98921.95
2018-12-07T15:01:18.329Z,98913.35
2018-12-07T15:03:46.910Z,98902.98
2018-12-07T15:06:15.378Z,98904.20
2018-12-07T15:08:44.135Z,98901.45
2018-12-07T15:11:12.884Z,98891.73
2018-12-07T15:13:41.658Z,98886.63
2018-12-07T15:16:10.216Z,98881.67
2018-12-07T15:18:38.884Z,98876.06
2018-12-07T15:21:07.401Z,98869.22
2018-12-07T15:23:35.969Z,98866.94
2018-12-07T15:26:04.812Z,98861.66
2018-12-07T15:28:33.610Z,98855.23
2018-12-07T15:31:02.226Z,98851.09
2018-12-07T15:33:30.834Z,98843.99
2018-12-07T15:35:59.537Z,98841.35
2018-12-07T15:38:28.277Z,98839.92
2018-12-07T15:40:56.866Z,98835.97
2018-12-07T15:43:25.581Z,98816.09
2018-12-07T15:45:54.328Z,98823.61
2018-12-07T15:48:23.038Z,98813.28
2018-12-07T15:50:51.599Z,98811.35
2018-12-07T15:53:20.344Z,98801.81
2018-12-07T15:55:52.393Z,98783.39
2018-12-07T15:58:21.138Z,98791.31
2018-12-07T16:00:49.766Z,98786.44
2018-12-07T16:03:18.409Z,98787.45
2018-12-07T16:05:47.117Z,98790.33
2018-12-07T16:08:15.751Z,98791.25
2018-12-07T16:10:48.939Z,98763.94
2018-12-07T16:13:15.009Z,98758.31
2018-12-07T16:15:43.677Z,98756.22
2018-12-07T16:18:12.229Z,98754.09
2018-12-07T16:20:40.899Z,98698.31
2018-12-07T16:23:09.682Z,98743.25
2018-12-07T16:25:38.338Z,98736.77
2018-12-07T16:28:06.887Z,98725.70
2018-12-07T16:30:35.471Z,98716.45
2018-12-07T16:33:04.261Z,98713.01
2018-12-07T16:35:33.097Z,98708.50
2018-12-07T16:38:01.744Z,98701.57
2018-12-07T16:40:30.357Z,98706.37
2018-12-07T16:42:59.001Z,98697.61
2018-12-07T16:45:27.643Z,98700.80
2018-12-07T16:47:56.467Z,98693.66
2018-12-07T16:50:25.288Z,98690.72
2018-12-07T16:52:54.039Z,98677.25
2018-12-07T16:55:22.572Z,98677.28
2018-12-07T16:57:51.257Z,98673.66
2018-12-07T17:00:19.957Z,98662.66
2018-12-07T17:02:48.693Z,98675.08
2018-12-07T17:05:17.394Z,98675.35
2018-12-07T17:07:46.065Z,98662.88
2018-12-07T17:10:14.753Z,98660.57
2018-12-07T17:12:43.625Z,98658.67
2018-12-07T17:15:12.480Z,98755.13
2018-12-07T17:17:41.320Z,98712.89
2018-12-07T17:20:10.016Z,98789.66
2018-12-07T17:22:38.813Z,98814.77
2018-12-07T17:25:08.509Z,98842.84
2018-12-07T17:27:37.124Z,98839.80
2018-12-07T17:30:06.400Z,98845.92
2018-12-07T17:32:35.003Z,98855.03
2018-12-07T17:35:03.707Z,98865.30
2018-12-07T17:37:32.451Z,98852.21
2018-12-07T17:40:01.036Z,98869.64
2018-12-07T17:42:30.022Z,98862.09
2018-12-07T17:44:58.994Z,98876.48
2018-12-07T17:47:27.642Z,98894.27
2018-12-07T17:49:56.273Z,98895.42
2018-12-07T17:52:24.956Z,98901.98
2018-12-07T17:54:53.510Z,98906.36
2018-12-07T17:57:22.364Z,98917.88
2018-12-07T17:59:51.396Z,98918.41
2018-12-07T18:02:20.043Z,98937.66
2018-12-07T18:04:48.781Z,98937.77
2018-12-07T18:07:17.507Z,98939.72
2018-12-07T18:09:46.248Z,98940.19
2018-12-07T18:12:15.010Z,98939.97
2018-12-07T18:14:43.906Z,98934.26
2018-12-07T18:17:12.617Z,98929.72
2018-12-07T18:19:41.336Z,98932.34
2018-12-07T18:22:09.974Z,98927.13
2018-12-07T18:24:38.711Z,98938.12
2018-12-07T18:27:07.497Z,98941.87
2018-12-07T18:29:36.154Z,98953.50
2018-12-07T18:32:05.005Z,98960.56
2018-12-07T18:34:33.725Z,98978.36
2018-12-07T18:37:02.514Z,98995.63
2018-12-07T18:39:31.718Z,98993.63
2018-12-07T18:42:00.372Z,98999.89
2018-12-07T18:44:29.129Z,99002.61
2018-12-07T18:46:57.740Z,99005.34
2018-12-07T18:49:26.372Z,99009.99
2018-12-07T18:51:55.167Z,99012.42
2018-12-07T18:54:23.728Z,99009.69
2018-12-07T18:56:52.339Z,99033.59
2018-12-07T18:59:21.001Z,99035.52
2018-12-07T19:01:50.176Z,99029.98
2018-12-07T19:04:19.019Z,99045.80
2018-12-07T19:06:47.703Z,99054.09
2018-12-07T19:09:16.321Z,99062.66
2018-12-07T19:11:45.299Z,99064.37
2018-12-07T19:14:14.120Z,99065.98
2018-12-07T19:16:42.784Z,99072.45
2018-12-07T19:19:11.456Z,99081.93
2018-12-07T19:21:40.128Z,99080.00
2018-12-07T19:24:12.077Z,99080.62
2018-12-07T19:26:40.677Z,99080.09
2018-12-07T19:29:09.518Z,99077.38
2018-12-07T19:31:38.621Z,99088.56
2018-12-07T19:34:07.360Z,99089.19
2018-12-07T19:36:35.875Z,99095.04
2018-12-07T19:39:07.757Z,99099.80
2018-12-07T19:41:36.823Z,99108.16
2018-12-07T19:44:05.817Z,99118.44
2018-12-07T19:46:34.703Z,99123.56
2018-12-07T19:49:03.572Z,99129.62
2018-12-07T19:51:33.871Z,99138.17
2018-12-07T19:54:02.634Z,99152.78
2018-12-07T19:56:31.801Z,99158.11
2018-12-07T19:59:00.521Z,99149.95
2018-12-07T20:01:29.464Z,99160.39
2018-12-07T20:03:58.077Z,99162.22
2018-12-07T20:06:27.262Z,99164.30
2018-12-07T20:08:56.043Z,99167.05
2018-12-07T20:11:24.973Z,99164.63
2018-12-07T20:13:53.772Z,99167.77
2018-12-07T20:16:22.675Z,99180.47
2018-12-07T20:18:51.742Z,99186.66
2018-12-07T20:21:20.245Z,99186.33
2018-12-07T20:23:48.907Z,99200.33
2018-12-07T20:26:17.624Z,99194.98
2018-12-07T20:28:46.497Z,99203.07
2018-12-07T20:31:15.468Z,99210.58
2018-12-07T20:33:44.297Z,99214.88
2018-12-07T20:36:12.971Z,99211.56
2018-12-07T20:38:43.224Z,99202.16
2018-12-07T20:41:12.425Z,99193.53
2018-12-07T20:43:41.699Z,99206.84
2018-12-07T20:46:11.428Z,99196.27
2018-12-07T20:48:42.105Z,99192.87
2018-12-07T20:51:11.962Z,99206.03
2018-12-07T20:53:42.056Z,99212.83
2018-12-07T20:56:11.973Z,99203.59
2018-12-07T20:58:41.636Z,99218.20
2018-12-07T21:01:11.605Z,99219.71
2018-12-07T21:04:36.823Z,99227.08
2018-12-07T21:07:28.153Z,99246.30
2018-12-07T21:11:07.946Z,99256.45
2018-12-07T21:14:41.814Z,99255.23
2018-12-07T21:17:33.688Z,99267.59
2018-12-07T21:20:10.939Z,99271.86
2018-12-07T21:22:39.736Z,99279.09
2018-12-07T21:25:08.413Z,99282.54
2018-12-07T21:27:37.321Z,99276.77
2018-12-07T21:31:16.777Z,99286.91
2018-12-07T21:38:04.997Z,99295.77
2018-12-07T21:40:34.321Z,99301.80
2018-12-07T21:43:03.141Z,99311.48
2018-12-07T21:45:32.046Z,99314.54
2018-12-07T21:48:25.348Z,99312.71
2018-12-07T21:51:31.300Z,99319.64
2018-12-07T21:54:00.175Z,99317.95
2018-12-07T21:56:28.823Z,99321.09
2018-12-07T21:58:57.484Z,99322.16
2018-12-07T22:01:26.387Z,99329.24
2018-12-07T22:03:55.627Z,99330.30
2018-12-07T22:06:24.324Z,99330.06
2018-12-07T22:08:53.115Z,99339.66
2018-12-07T22:11:21.711Z,99341.16
2018-12-07T22:13:50.442Z,99339.08
2018-12-07T22:16:19.160Z,99345.70
2018-12-07T22:18:48.037Z,99348.13
2018-12-07T22:21:16.723Z,99347.45
2018-12-07T22:23:45.643Z,99349.25
2018-12-07T22:26:14.203Z,99362.64
2018-12-07T22:28:43.622Z,99364.88
2018-12-07T22:31:12.349Z,99359.02
2018-12-07T22:33:41.211Z,99360.66
2018-12-07T22:36:09.805Z,99363.53
2018-12-07T22:38:38.442Z,99370.50
2018-12-07T22:41:07.035Z,99370.30
2018-12-07T22:43:35.823Z,99377.41
2018-12-07T22:46:04.433Z,99379.84
2018-12-07T22:48:32.951Z,99381.16
2018-12-07T22:51:01.580Z,99383.03
2018-12-07T22:53:30.068Z,99390.07
2018-12-07T22:55:58.649Z,99386.52
2018-12-07T22:58:27.201Z,99388.39
2018-12-07T23:00:55.758Z,99391.31
2018-12-07T23:03:24.349Z,99389.70
2018-12-07T23:05:52.807Z,99395.10
2018-12-07T23:08:21.287Z,99395.29
2018-12-07T23:10:49.743Z,99393.09
2018-12-07T23:13:18.309Z,99383.33
2018-12-07T23:15:46.803Z,99382.50
2018-12-07T23:18:15.300Z,99380.63
2018-12-07T23:20:44.306Z,99371.17
2018-12-07T23:23:12.825Z,99375.22
2018-12-07T23:25:41.348Z,99376.01
2018-12-07T23:28:09.831Z,99374.77
2018-12-07T23:30:38.369Z,99370.09
2018-12-07T23:33:06.877Z,99381.66
2018-12-07T23:35:35.356Z,99383.89
2018-12-07T23:38:03.888Z,99386.63
2018-12-07T23:40:32.432Z,99392.68
2018-12-07T23:43:01.907Z,99391.75
2018-12-07T23:45:30.653Z,99396.19
2018-12-07T23:47:59.136Z,99398.14
2018-12-07T23:50:27.604Z,99397.50
2018-12-07T23:52:56.092Z,99396.49
2018-12-07T23:55:24.563Z,99395.86
2018-12-07T23:57:53.056Z,99393.28
